Terminal Aerodrome Forecast
Issued by NWS Jackson, KY

Home | Current Version | Previous Version | Text Only | Print | Product List | Glossary On
Versions: 1 2 3 4 5 6 7 8 9 10 11 12 13 14 15 16 17 18 19 20 21 22 23 24
000
FTUS43 KJKL 291859 AAA
TAFLOZ
TAF AMD
KLOZ 291859Z 2919/3018 24006KT 6SM SHRA VCTS SCT015CB BKN050
      TEMPO 2919/2920 1SM TSRA SCT010 OVC030CB
     FM300200 VRB03KT P6SM SCT050 BKN130
     FM300800 00000KT 3SM BR SCT008 BKN015
     FM301000 00000KT 2SM BR BKN003
     FM301700 25005KT P6SM BKN050=

USA.gov is the U.S. government's official web portal to all federal, state and local government web resources and services.